sensor_id;sensor_type;location;lat;lon;timestamp;P1;durP1;ratioP1;P2;durP2;ratioP2
69280;SDS011;56392;51.082;17.080;2024-03-02T00:03:28;91.95;;;41.70;;
69280;SDS011;56392;51.082;17.080;2024-03-02T00:08:51;93.43;;;42.97;;
69280;SDS011;56392;51.082;17.080;2024-03-02T00:14:22;86.47;;;39.83;;
69280;SDS011;56392;51.082;17.080;2024-03-02T00:19:46;78.50;;;38.00;;
69280;SDS011;56392;51.082;17.080;2024-03-02T00:25:09;92.35;;;41.03;;
69280;SDS011;56392;51.082;17.080;2024-03-02T00:36:22;87.13;;;39.67;;
69280;SDS011;56392;51.082;17.080;2024-03-02T00:41:48;95.32;;;43.08;;
69280;SDS011;56392;51.082;17.080;2024-03-02T00:47:13;81.47;;;39.63;;
69280;SDS011;56392;51.082;17.080;2024-03-02T00:52:36;90.33;;;41.83;;
69280;SDS011;56392;51.082;17.080;2024-03-02T00:57:59;89.22;;;41.17;;
69280;SDS011;56392;51.082;17.080;2024-03-02T01:03:24;93.38;;;41.67;;
69280;SDS011;56392;51.082;17.080;2024-03-02T01:08:47;99.20;;;43.70;;
69280;SDS011;56392;51.082;17.080;2024-03-02T01:14:12;96.60;;;42.53;;
69280;SDS011;56392;51.082;17.080;2024-03-02T01:19:43;92.95;;;42.67;;
69280;SDS011;56392;51.082;17.080;2024-03-02T01:25:06;87.75;;;41.00;;
69280;SDS011;56392;51.082;17.080;2024-03-02T01:30:31;91.17;;;40.80;;
69280;SDS011;56392;51.082;17.080;2024-03-02T01:35:56;84.85;;;39.70;;
69280;SDS011;56392;51.082;17.080;2024-03-02T01:41:20;92.70;;;42.58;;
69280;SDS011;56392;51.082;17.080;2024-03-02T01:46:46;94.50;;;42.27;;
69280;SDS011;56392;51.082;17.080;2024-03-02T01:52:10;95.22;;;41.75;;
69280;SDS011;56392;51.082;17.080;2024-03-02T01:57:34;98.13;;;43.65;;
69280;SDS011;56392;51.082;17.080;2024-03-02T02:02:57;100.37;;;44.00;;
69280;SDS011;56392;51.082;17.080;2024-03-02T02:08:22;92.00;;;43.07;;
69280;SDS011;56392;51.082;17.080;2024-03-02T02:13:45;95.90;;;42.28;;
69280;SDS011;56392;51.082;17.080;2024-03-02T02:19:09;92.85;;;40.20;;
69280;SDS011;56392;51.082;17.080;2024-03-02T02:24:33;91.93;;;41.23;;
69280;SDS011;56392;51.082;17.080;2024-03-02T02:29:56;95.82;;;40.75;;
69280;SDS011;56392;51.082;17.080;2024-03-02T02:35:21;98.10;;;41.42;;
69280;SDS011;56392;51.082;17.080;2024-03-02T02:40:46;93.23;;;41.13;;
69280;SDS011;56392;51.082;17.080;2024-03-02T02:46:10;103.25;;;44.97;;
69280;SDS011;56392;51.082;17.080;2024-03-02T02:51:33;100.30;;;43.03;;
69280;SDS011;56392;51.082;17.080;2024-03-02T02:56:58;93.00;;;40.40;;
69280;SDS011;56392;51.082;17.080;2024-03-02T03:02:23;89.00;;;39.93;;
69280;SDS011;56392;51.082;17.080;2024-03-02T03:07:46;100.47;;;41.05;;
69280;SDS011;56392;51.082;17.080;2024-03-02T03:13:13;100.18;;;42.85;;
69280;SDS011;56392;51.082;17.080;2024-03-02T03:18:36;90.30;;;40.13;;
69280;SDS011;56392;51.082;17.080;2024-03-02T03:24:00;94.57;;;40.13;;
69280;SDS011;56392;51.082;17.080;2024-03-02T03:29:24;94.90;;;41.05;;
69280;SDS011;56392;51.082;17.080;2024-03-02T03:34:47;82.87;;;37.73;;
69280;SDS011;56392;51.082;17.080;2024-03-02T03:40:11;89.22;;;39.28;;
69280;SDS011;56392;51.082;17.080;2024-03-02T03:45:37;87.15;;;37.15;;
69280;SDS011;56392;51.082;17.080;2024-03-02T03:51:00;87.43;;;37.77;;
69280;SDS011;56392;51.082;17.080;2024-03-02T03:56:24;89.70;;;40.50;;
69280;SDS011;56392;51.082;17.080;2024-03-02T04:01:48;81.70;;;38.50;;
69280;SDS011;56392;51.082;17.080;2024-03-02T04:07:12;83.53;;;36.85;;
69280;SDS011;56392;51.082;17.080;2024-03-02T04:12:35;92.77;;;40.17;;
69280;SDS011;56392;51.082;17.080;2024-03-02T04:18:00;89.03;;;40.05;;
69280;SDS011;56392;51.082;17.080;2024-03-02T04:23:26;90.70;;;39.58;;
69280;SDS011;56392;51.082;17.080;2024-03-02T04:28:49;97.40;;;43.70;;
69280;SDS011;56392;51.082;17.080;2024-03-02T04:34:13;105.05;;;47.85;;
69280;SDS011;56392;51.082;17.080;2024-03-02T04:39:37;92.78;;;44.25;;
69280;SDS011;56392;51.082;17.080;2024-03-02T04:45:00;89.90;;;41.73;;
69280;SDS011;56392;51.082;17.080;2024-03-02T04:50:25;86.60;;;39.90;;
69280;SDS011;56392;51.082;17.080;2024-03-02T04:55:48;92.05;;;41.60;;
69280;SDS011;56392;51.082;17.080;2024-03-02T05:01:46;78.70;;;37.58;;
69280;SDS011;56392;51.082;17.080;2024-03-02T05:07:11;85.30;;;37.27;;
69280;SDS011;56392;51.082;17.080;2024-03-02T05:12:34;87.78;;;36.83;;
69280;SDS011;56392;51.082;17.080;2024-03-02T05:18:18;80.63;;;35.92;;
69280;SDS011;56392;51.082;17.080;2024-03-02T05:23:44;85.83;;;36.13;;
69280;SDS011;56392;51.082;17.080;2024-03-02T05:29:08;88.07;;;39.83;;
69280;SDS011;56392;51.082;17.080;2024-03-02T05:34:32;84.75;;;35.13;;
69280;SDS011;56392;51.082;17.080;2024-03-02T05:39:58;81.40;;;35.07;;
69280;SDS011;56392;51.082;17.080;2024-03-02T05:45:21;82.70;;;35.50;;
69280;SDS011;56392;51.082;17.080;2024-03-02T05:50:45;83.57;;;34.58;;
69280;SDS011;56392;51.082;17.080;2024-03-02T05:56:10;78.28;;;33.50;;
69280;SDS011;56392;51.082;17.080;2024-03-02T06:01:33;80.87;;;34.97;;
69280;SDS011;56392;51.082;17.080;2024-03-02T06:06:57;71.40;;;32.22;;
69280;SDS011;56392;51.082;17.080;2024-03-02T06:12:21;84.43;;;36.60;;
69280;SDS011;56392;51.082;17.080;2024-03-02T06:17:45;77.27;;;33.47;;
69280;SDS011;56392;51.082;17.080;2024-03-02T06:23:08;75.15;;;32.70;;
69280;SDS011;56392;51.082;17.080;2024-03-02T06:28:33;75.72;;;35.08;;
69280;SDS011;56392;51.082;17.080;2024-03-02T06:33:56;79.83;;;35.27;;
69280;SDS011;56392;51.082;17.080;2024-03-02T06:39:19;74.70;;;34.07;;
69280;SDS011;56392;51.082;17.080;2024-03-02T06:44:49;69.05;;;32.85;;
69280;SDS011;56392;51.082;17.080;2024-03-02T06:50:12;73.90;;;33.88;;
69280;SDS011;56392;51.082;17.080;2024-03-02T06:55:36;72.93;;;34.27;;
69280;SDS011;56392;51.082;17.080;2024-03-02T07:01:01;68.30;;;32.45;;
69280;SDS011;56392;51.082;17.080;2024-03-02T07:06:24;67.35;;;33.25;;
69280;SDS011;56392;51.082;17.080;2024-03-02T07:11:48;62.47;;;30.90;;
69280;SDS011;56392;51.082;17.080;2024-03-02T07:17:17;65.00;;;31.42;;
69280;SDS011;56392;51.082;17.080;2024-03-02T07:22:42;70.15;;;31.10;;
69280;SDS011;56392;51.082;17.080;2024-03-02T07:28:05;63.67;;;29.73;;
69280;SDS011;56392;51.082;17.080;2024-03-02T07:33:31;58.73;;;29.80;;
69280;SDS011;56392;51.082;17.080;2024-03-02T07:38:54;61.85;;;29.65;;
69280;SDS011;56392;51.082;17.080;2024-03-02T07:44:18;59.45;;;27.70;;
69280;SDS011;56392;51.082;17.080;2024-03-02T07:49:45;53.07;;;27.20;;
69280;SDS011;56392;51.082;17.080;2024-03-02T07:55:09;54.22;;;27.83;;
69280;SDS011;56392;51.082;17.080;2024-03-02T08:00:32;50.75;;;26.15;;
69280;SDS011;56392;51.082;17.080;2024-03-02T08:05:57;53.53;;;28.20;;
69280;SDS011;56392;51.082;17.080;2024-03-02T08:11:20;57.80;;;29.52;;
69280;SDS011;56392;51.082;17.080;2024-03-02T08:16:46;52.58;;;28.60;;
69280;SDS011;56392;51.082;17.080;2024-03-02T08:22:12;52.43;;;27.27;;
69280;SDS011;56392;51.082;17.080;2024-03-02T08:27:36;51.50;;;26.10;;
69280;SDS011;56392;51.082;17.080;2024-03-02T08:33:03;52.42;;;26.58;;
69280;SDS011;56392;51.082;17.080;2024-03-02T08:38:28;52.88;;;27.40;;
69280;SDS011;56392;51.082;17.080;2024-03-02T08:43:54;48.00;;;25.27;;
69280;SDS011;56392;51.082;17.080;2024-03-02T08:49:23;50.35;;;24.85;;
69280;SDS011;56392;51.082;17.080;2024-03-02T08:54:48;48.72;;;25.35;;
69280;SDS011;56392;51.082;17.080;2024-03-02T09:00:12;48.20;;;25.03;;
69280;SDS011;56392;51.082;17.080;2024-03-02T09:05:36;45.88;;;24.00;;
69280;SDS011;56392;51.082;17.080;2024-03-02T09:11:00;47.05;;;24.27;;
69280;SDS011;56392;51.082;17.080;2024-03-02T09:16:24;42.40;;;22.57;;
69280;SDS011;56392;51.082;17.080;2024-03-02T09:21:52;41.30;;;22.93;;
69280;SDS011;56392;51.082;17.080;2024-03-02T09:27:18;42.67;;;22.63;;
69280;SDS011;56392;51.082;17.080;2024-03-02T09:32:42;43.85;;;22.00;;
69280;SDS011;56392;51.082;17.080;2024-03-02T09:38:05;45.07;;;22.70;;
69280;SDS011;56392;51.082;17.080;2024-03-02T09:43:30;42.25;;;23.35;;
69280;SDS011;56392;51.082;17.080;2024-03-02T09:48:55;40.35;;;22.27;;
69280;SDS011;56392;51.082;17.080;2024-03-02T09:54:18;39.07;;;20.90;;
69280;SDS011;56392;51.082;17.080;2024-03-02T09:59:43;44.05;;;21.17;;
69280;SDS011;56392;51.082;17.080;2024-03-02T10:05:07;40.95;;;21.05;;
69280;SDS011;56392;51.082;17.080;2024-03-02T10:10:36;36.90;;;20.20;;
69280;SDS011;56392;51.082;17.080;2024-03-02T10:16:08;36.43;;;19.93;;
69280;SDS011;56392;51.082;17.080;2024-03-02T10:21:34;36.97;;;19.45;;
69280;SDS011;56392;51.082;17.080;2024-03-02T10:26:57;38.78;;;19.50;;
69280;SDS011;56392;51.082;17.080;2024-03-02T10:32:22;37.63;;;20.43;;
69280;SDS011;56392;51.082;17.080;2024-03-02T10:37:45;42.22;;;21.67;;
69280;SDS011;56392;51.082;17.080;2024-03-02T10:43:09;37.50;;;20.10;;
69280;SDS011;56392;51.082;17.080;2024-03-02T10:48:35;35.50;;;19.33;;
69280;SDS011;56392;51.082;17.080;2024-03-02T10:54:02;36.63;;;20.13;;
69280;SDS011;56392;51.082;17.080;2024-03-02T10:59:27;39.03;;;21.23;;
69280;SDS011;56392;51.082;17.080;2024-03-02T11:04:54;36.80;;;19.37;;
69280;SDS011;56392;51.082;17.080;2024-03-02T11:10:17;34.57;;;19.33;;
69280;SDS011;56392;51.082;17.080;2024-03-02T11:15:41;38.67;;;20.10;;
69280;SDS011;56392;51.082;17.080;2024-03-02T11:21:08;39.05;;;19.17;;
69280;SDS011;56392;51.082;17.080;2024-03-02T11:26:31;34.70;;;18.47;;
69280;SDS011;56392;51.082;17.080;2024-03-02T11:32:01;36.20;;;18.88;;
69280;SDS011;56392;51.082;17.080;2024-03-02T11:37:26;33.72;;;17.48;;
69280;SDS011;56392;51.082;17.080;2024-03-02T11:42:49;34.87;;;18.40;;
69280;SDS011;56392;51.082;17.080;2024-03-02T11:48:13;36.97;;;17.67;;
69280;SDS011;56392;51.082;17.080;2024-03-02T11:53:39;29.40;;;17.17;;
69280;SDS011;56392;51.082;17.080;2024-03-02T11:59:04;28.97;;;16.53;;
69280;SDS011;56392;51.082;17.080;2024-03-02T12:04:28;31.30;;;16.47;;
69280;SDS011;56392;51.082;17.080;2024-03-02T12:10:00;32.78;;;15.10;;
69280;SDS011;56392;51.082;17.080;2024-03-02T12:15:25;35.20;;;19.00;;
69280;SDS011;56392;51.082;17.080;2024-03-02T12:20:49;36.63;;;19.70;;
69280;SDS011;56392;51.082;17.080;2024-03-02T12:26:15;35.83;;;19.45;;
69280;SDS011;56392;51.082;17.080;2024-03-02T12:31:38;38.38;;;18.80;;
69280;SDS011;56392;51.082;17.080;2024-03-02T12:37:02;33.27;;;17.80;;
69280;SDS011;56392;51.082;17.080;2024-03-02T12:42:26;32.03;;;15.80;;
69280;SDS011;56392;51.082;17.080;2024-03-02T12:47:50;31.52;;;17.02;;
69280;SDS011;56392;51.082;17.080;2024-03-02T12:53:14;35.23;;;17.67;;
69280;SDS011;56392;51.082;17.080;2024-03-02T12:58:40;32.97;;;17.13;;
69280;SDS011;56392;51.082;17.080;2024-03-02T13:04:04;33.60;;;15.90;;
69280;SDS011;56392;51.082;17.080;2024-03-02T13:09:27;30.55;;;15.75;;
69280;SDS011;56392;51.082;17.080;2024-03-02T13:14:52;33.07;;;17.43;;
69280;SDS011;56392;51.082;17.080;2024-03-02T13:20:15;35.22;;;18.65;;
69280;SDS011;56392;51.082;17.080;2024-03-02T13:25:40;38.83;;;21.25;;
69280;SDS011;56392;51.082;17.080;2024-03-02T13:31:07;32.03;;;18.87;;
69280;SDS011;56392;51.082;17.080;2024-03-02T13:36:29;32.17;;;16.45;;
69280;SDS011;56392;51.082;17.080;2024-03-02T13:41:52;27.75;;;14.77;;
69280;SDS011;56392;51.082;17.080;2024-03-02T13:47:25;32.37;;;17.37;;
69280;SDS011;56392;51.082;17.080;2024-03-02T13:52:49;34.20;;;17.70;;
69280;SDS011;56392;51.082;17.080;2024-03-02T13:58:12;27.95;;;15.55;;
69280;SDS011;56392;51.082;17.080;2024-03-02T14:03:37;30.35;;;14.75;;
69280;SDS011;56392;51.082;17.080;2024-03-02T14:09:00;31.03;;;14.03;;
69280;SDS011;56392;51.082;17.080;2024-03-02T14:14:23;26.33;;;14.13;;
69280;SDS011;56392;51.082;17.080;2024-03-02T14:19:47;28.35;;;14.35;;
69280;SDS011;56392;51.082;17.080;2024-03-02T14:25:10;27.77;;;14.23;;
69280;SDS011;56392;51.082;17.080;2024-03-02T14:30:33;31.10;;;15.07;;
69280;SDS011;56392;51.082;17.080;2024-03-02T14:35:58;33.50;;;15.32;;
69280;SDS011;56392;51.082;17.080;2024-03-02T14:41:21;30.50;;;15.03;;
69280;SDS011;56392;51.082;17.080;2024-03-02T14:46:46;31.77;;;15.23;;
69280;SDS011;56392;51.082;17.080;2024-03-02T14:52:12;35.70;;;17.10;;
69280;SDS011;56392;51.082;17.080;2024-03-02T14:57:35;30.38;;;16.15;;
69280;SDS011;56392;51.082;17.080;2024-03-02T15:02:58;34.57;;;17.27;;
69280;SDS011;56392;51.082;17.080;2024-03-02T15:08:23;32.67;;;15.88;;
69280;SDS011;56392;51.082;17.080;2024-03-02T15:13:46;32.58;;;16.80;;
69280;SDS011;56392;51.082;17.080;2024-03-02T15:19:09;31.03;;;16.77;;
69280;SDS011;56392;51.082;17.080;2024-03-02T15:24:34;32.25;;;16.67;;
69280;SDS011;56392;51.082;17.080;2024-03-02T15:29:57;30.05;;;16.50;;
69280;SDS011;56392;51.082;17.080;2024-03-02T15:35:20;32.30;;;16.00;;
69280;SDS011;56392;51.082;17.080;2024-03-02T15:40:45;31.43;;;16.47;;
69280;SDS011;56392;51.082;17.080;2024-03-02T15:46:08;29.45;;;15.48;;
69280;SDS011;56392;51.082;17.080;2024-03-02T15:51:31;29.70;;;15.50;;
69280;SDS011;56392;51.082;17.080;2024-03-02T15:56:56;28.03;;;15.13;;
69280;SDS011;56392;51.082;17.080;2024-03-02T16:02:19;30.90;;;15.65;;
69280;SDS011;56392;51.082;17.080;2024-03-02T16:07:42;32.13;;;16.50;;
69280;SDS011;56392;51.082;17.080;2024-03-02T16:13:06;34.07;;;17.43;;
69280;SDS011;56392;51.082;17.080;2024-03-02T16:18:29;33.70;;;17.13;;
69280;SDS011;56392;51.082;17.080;2024-03-02T16:23:53;34.25;;;17.25;;
69280;SDS011;56392;51.082;17.080;2024-03-02T16:29:17;28.63;;;16.17;;
69280;SDS011;56392;51.082;17.080;2024-03-02T16:34:40;33.00;;;16.43;;
69280;SDS011;56392;51.082;17.080;2024-03-02T16:40:04;33.92;;;15.77;;
69280;SDS011;56392;51.082;17.080;2024-03-02T16:45:29;29.55;;;15.90;;
69280;SDS011;56392;51.082;17.080;2024-03-02T16:50:53;37.87;;;19.37;;
69280;SDS011;56392;51.082;17.080;2024-03-02T16:56:16;38.10;;;19.05;;
69280;SDS011;56392;51.082;17.080;2024-03-02T17:01:40;41.60;;;19.73;;
69280;SDS011;56392;51.082;17.080;2024-03-02T17:07:03;35.07;;;17.43;;
69280;SDS011;56392;51.082;17.080;2024-03-02T17:12:27;36.85;;;20.00;;
69280;SDS011;56392;51.082;17.080;2024-03-02T17:17:51;41.22;;;19.25;;
69280;SDS011;56392;51.082;17.080;2024-03-02T17:23:14;41.30;;;20.53;;
69280;SDS011;56392;51.082;17.080;2024-03-02T17:28:38;38.80;;;20.23;;
69280;SDS011;56392;51.082;17.080;2024-03-02T17:34:04;47.70;;;21.42;;
69280;SDS011;56392;51.082;17.080;2024-03-02T17:39:27;43.00;;;21.42;;
69280;SDS011;56392;51.082;17.080;2024-03-02T17:44:50;40.10;;;20.77;;
69280;SDS011;56392;51.082;17.080;2024-03-02T17:50:14;41.00;;;19.98;;
69280;SDS011;56392;51.082;17.080;2024-03-02T17:55:37;36.65;;;19.38;;
69280;SDS011;56392;51.082;17.080;2024-03-02T18:01:00;41.67;;;19.57;;
69280;SDS011;56392;51.082;17.080;2024-03-02T18:06:26;39.78;;;20.83;;
69280;SDS011;56392;51.082;17.080;2024-03-02T18:11:49;38.15;;;19.45;;
69280;SDS011;56392;51.082;17.080;2024-03-02T18:17:12;37.23;;;18.33;;
69280;SDS011;56392;51.082;17.080;2024-03-02T18:22:37;36.97;;;19.00;;
69280;SDS011;56392;51.082;17.080;2024-03-02T18:28:01;33.03;;;15.55;;
69280;SDS011;56392;51.082;17.080;2024-03-02T18:33:28;28.33;;;14.77;;
69280;SDS011;56392;51.082;17.080;2024-03-02T18:38:53;28.73;;;14.67;;
69280;SDS011;56392;51.082;17.080;2024-03-02T18:44:17;26.25;;;14.10;;
69280;SDS011;56392;51.082;17.080;2024-03-02T18:49:42;24.65;;;13.55;;
69280;SDS011;56392;51.082;17.080;2024-03-02T18:55:08;26.60;;;12.57;;
69280;SDS011;56392;51.082;17.080;2024-03-02T19:00:33;23.55;;;11.73;;
69280;SDS011;56392;51.082;17.080;2024-03-02T19:05:56;27.58;;;12.65;;
69280;SDS011;56392;51.082;17.080;2024-03-02T19:11:21;28.60;;;12.97;;
69280;SDS011;56392;51.082;17.080;2024-03-02T19:16:44;25.37;;;12.90;;
69280;SDS011;56392;51.082;17.080;2024-03-02T19:22:07;22.23;;;11.18;;
69280;SDS011;56392;51.082;17.080;2024-03-02T19:27:32;21.60;;;11.23;;
69280;SDS011;56392;51.082;17.080;2024-03-02T19:32:55;23.07;;;11.93;;
69280;SDS011;56392;51.082;17.080;2024-03-02T19:38:19;19.17;;;10.27;;
69280;SDS011;56392;51.082;17.080;2024-03-02T19:43:43;20.75;;;9.68;;
69280;SDS011;56392;51.082;17.080;2024-03-02T19:49:06;20.57;;;10.13;;
69280;SDS011;56392;51.082;17.080;2024-03-02T19:54:31;21.67;;;12.00;;
69280;SDS011;56392;51.082;17.080;2024-03-02T19:59:56;24.75;;;12.95;;
69280;SDS011;56392;51.082;17.080;2024-03-02T20:05:19;25.67;;;12.13;;
69280;SDS011;56392;51.082;17.080;2024-03-02T20:10:42;27.37;;;12.60;;
69280;SDS011;56392;51.082;17.080;2024-03-02T20:16:08;26.42;;;12.13;;
69280;SDS011;56392;51.082;17.080;2024-03-02T20:21:31;26.48;;;12.70;;
69280;SDS011;56392;51.082;17.080;2024-03-02T20:26:54;25.30;;;12.70;;
69280;SDS011;56392;51.082;17.080;2024-03-02T20:32:20;26.70;;;12.57;;
69280;SDS011;56392;51.082;17.080;2024-03-02T20:37:43;28.95;;;13.13;;
69280;SDS011;56392;51.082;17.080;2024-03-02T20:43:07;25.27;;;12.53;;
69280;SDS011;56392;51.082;17.080;2024-03-02T20:48:33;23.92;;;11.60;;
69280;SDS011;56392;51.082;17.080;2024-03-02T20:53:57;22.90;;;11.48;;
69280;SDS011;56392;51.082;17.080;2024-03-02T20:59:23;22.30;;;11.93;;
69280;SDS011;56392;51.082;17.080;2024-03-02T21:04:50;27.93;;;12.63;;
69280;SDS011;56392;51.082;17.080;2024-03-02T21:10:13;31.55;;;13.30;;
69280;SDS011;56392;51.082;17.080;2024-03-02T21:15:36;28.48;;;13.85;;
69280;SDS011;56392;51.082;17.080;2024-03-02T21:21:01;24.93;;;12.87;;
69280;SDS011;56392;51.082;17.080;2024-03-02T21:26:24;30.92;;;13.60;;
69280;SDS011;56392;51.082;17.080;2024-03-02T21:31:49;24.75;;;12.18;;
69280;SDS011;56392;51.082;17.080;2024-03-02T21:37:16;29.67;;;14.70;;
69280;SDS011;56392;51.082;17.080;2024-03-02T21:42:39;24.92;;;12.98;;
69280;SDS011;56392;51.082;17.080;2024-03-02T21:48:03;27.90;;;15.45;;
69280;SDS011;56392;51.082;17.080;2024-03-02T21:53:28;36.60;;;19.43;;
69280;SDS011;56392;51.082;17.080;2024-03-02T21:58:51;36.57;;;19.50;;
69280;SDS011;56392;51.082;17.080;2024-03-02T22:04:14;39.30;;;19.88;;
69280;SDS011;56392;51.082;17.080;2024-03-02T22:09:39;34.00;;;17.33;;
69280;SDS011;56392;51.082;17.080;2024-03-02T22:15:02;33.87;;;15.70;;
69280;SDS011;56392;51.082;17.080;2024-03-02T22:20:26;29.70;;;15.68;;
69280;SDS011;56392;51.082;17.080;2024-03-02T22:25:51;23.35;;;12.65;;
69280;SDS011;56392;51.082;17.080;2024-03-02T22:31:14;25.63;;;12.20;;
69280;SDS011;56392;51.082;17.080;2024-03-02T22:36:37;24.50;;;12.30;;
69280;SDS011;56392;51.082;17.080;2024-03-02T22:42:02;27.02;;;12.90;;
69280;SDS011;56392;51.082;17.080;2024-03-02T22:47:26;23.90;;;12.97;;
69280;SDS011;56392;51.082;17.080;2024-03-02T22:52:49;28.37;;;14.77;;
69280;SDS011;56392;51.082;17.080;2024-03-02T22:58:14;28.50;;;13.75;;
69280;SDS011;56392;51.082;17.080;2024-03-02T23:03:38;29.08;;;14.95;;
69280;SDS011;56392;51.082;17.080;2024-03-02T23:09:02;27.77;;;13.87;;
69280;SDS011;56392;51.082;17.080;2024-03-02T23:14:27;31.75;;;14.43;;
69280;SDS011;56392;51.082;17.080;2024-03-02T23:19:50;29.15;;;14.32;;
69280;SDS011;56392;51.082;17.080;2024-03-02T23:25:13;29.50;;;14.73;;
69280;SDS011;56392;51.082;17.080;2024-03-02T23:30:38;29.15;;;14.85;;
69280;SDS011;56392;51.082;17.080;2024-03-02T23:36:01;33.60;;;16.38;;
69280;SDS011;56392;51.082;17.080;2024-03-02T23:41:24;34.10;;;16.13;;
69280;SDS011;56392;51.082;17.080;2024-03-02T23:46:49;41.60;;;21.80;;
69280;SDS011;56392;51.082;17.080;2024-03-02T23:52:12;47.63;;;24.65;;
69280;SDS011;56392;51.082;17.080;2024-03-02T23:57:35;50.95;;;26.13;;
